createdAt,value
2019-05-23T00:01:31.427Z,23.67
2019-05-23T00:04:04.788Z,23.35
2019-05-23T00:06:35.181Z,17.67
2019-05-23T00:09:07.702Z,16.75
2019-05-23T00:11:40.004Z,19.82
2019-05-23T00:14:25.285Z,17.12
2019-05-23T00:16:56.832Z,24.07
2019-05-23T00:19:26.558Z,17.07
2019-05-23T00:21:56.200Z,17.15
2019-05-23T00:24:27.530Z,14.65
2019-05-23T00:26:57.168Z,16.62
2019-05-23T00:29:28.646Z,15.98
2019-05-23T00:31:59.131Z,16.17
2019-05-23T00:34:29.893Z,14.03
2019-05-23T00:36:59.898Z,16.30
2019-05-23T00:39:29.860Z,19.48
2019-05-23T00:41:58.771Z,15.75
2019-05-23T00:44:28.641Z,15.68
2019-05-23T00:46:59.782Z,16.55
2019-05-23T00:49:29.313Z,16.52
2019-05-23T00:51:59.013Z,21.27
2019-05-23T00:54:27.762Z,19.45
2019-05-23T00:56:57.065Z,25.80
2019-05-23T00:59:27.886Z,28.10
2019-05-23T01:01:56.946Z,28.70
2019-05-23T01:04:26.370Z,23.57
2019-05-23T01:06:56.374Z,28.35
2019-05-23T01:09:26.988Z,27.70
2019-05-23T01:11:59.833Z,34.73
2019-05-23T01:14:28.922Z,28.77
2019-05-23T01:16:57.797Z,25.77
2019-05-23T01:19:35.725Z,34.80
2019-05-23T01:22:06.181Z,34.92
2019-05-23T01:24:45.971Z,41.92
2019-05-23T01:27:15.335Z,34.38
2019-05-23T01:29:49.976Z,41.50
2019-05-23T01:32:32.826Z,40.90
2019-05-23T01:35:03.244Z,37.03
2019-05-23T01:37:32.288Z,43.00
2019-05-23T01:40:02.265Z,40.92
2019-05-23T01:42:30.917Z,46.85
2019-05-23T01:45:02.335Z,37.95
2019-05-23T01:47:32.609Z,38.92
2019-05-23T01:50:01.613Z,39.38
2019-05-23T01:52:30.378Z,39.40
2019-05-23T01:55:00.111Z,49.23
2019-05-23T01:57:29.230Z,44.70
2019-05-23T02:00:09.099Z,39.33
2019-05-23T02:02:29.259Z,44.70
2019-05-23T02:04:58.557Z,40.15
2019-05-23T02:07:29.416Z,44.30
2019-05-23T02:09:58.690Z,35.33
2019-05-23T02:12:27.520Z,43.13
2019-05-23T02:14:57.107Z,37.48
2019-05-23T02:17:26.525Z,36.88
2019-05-23T02:19:55.596Z,37.93
2019-05-23T02:22:24.918Z,32.65
2019-05-23T02:24:53.838Z,25.08
2019-05-23T02:27:23.446Z,23.30
2019-05-23T02:29:52.137Z,24.05
2019-05-23T02:32:21.819Z,19.95
2019-05-23T02:34:51.953Z,20.02
2019-05-23T02:37:22.273Z,18.15
2019-05-23T02:39:52.566Z,19.35
2019-05-23T02:42:23.317Z,22.75
2019-05-23T02:44:52.759Z,24.57
2019-05-23T02:47:39.802Z,17.67
2019-05-23T02:50:13.201Z,20.40
2019-05-23T02:52:46.506Z,16.45
2019-05-23T02:55:21.054Z,20.52
2019-05-23T02:57:51.615Z,16.23
2019-05-23T03:00:52.591Z,18.48
2019-05-23T03:03:11.284Z,21.70
2019-05-23T03:05:41.087Z,20.15
2019-05-23T03:08:12.759Z,16.95
2019-05-23T03:10:54.925Z,18.75
2019-05-23T03:13:26.578Z,19.77
2019-05-23T03:15:55.475Z,17.48
2019-05-23T03:18:25.602Z,15.85
2019-05-23T03:20:55.810Z,17.70
2019-05-23T03:23:24.547Z,22.95
2019-05-23T03:26:19.970Z,16.65
2019-05-23T03:28:49.920Z,18.35
2019-05-23T03:31:31.342Z,16.05
2019-05-23T03:33:57.866Z,15.75
2019-05-23T03:36:27.403Z,18.98
2019-05-23T03:38:56.780Z,21.25
2019-05-23T03:41:26.083Z,19.40
2019-05-23T03:43:55.271Z,20.88
2019-05-23T03:46:28.298Z,24.27
2019-05-23T03:48:58.074Z,19.77
2019-05-23T03:51:26.850Z,15.20
2019-05-23T03:53:57.131Z,17.32
2019-05-23T03:56:26.973Z,19.25
2019-05-23T03:58:57.012Z,18.00
2019-05-23T04:01:46.106Z,17.60
2019-05-23T04:03:58.799Z,19.52
2019-05-23T04:06:28.365Z,15.40
2019-05-23T04:08:57.423Z,15.30
2019-05-23T04:11:26.408Z,18.30
2019-05-23T04:13:55.419Z,16.42
2019-05-23T04:16:27.742Z,15.30
2019-05-23T04:18:55.664Z,14.47
2019-05-23T04:21:25.558Z,15.43
2019-05-23T04:23:54.923Z,19.45
2019-05-23T04:26:23.810Z,31.50
2019-05-23T04:28:53.291Z,14.68
2019-05-23T04:31:22.203Z,18.42
2019-05-23T04:33:51.124Z,20.55
2019-05-23T04:36:20.130Z,16.77
2019-05-23T04:38:49.271Z,17.25
2019-05-23T04:41:18.479Z,21.50
2019-05-23T04:43:47.185Z,14.80
2019-05-23T04:46:16.007Z,17.60
2019-05-23T04:48:50.621Z,23.30
2019-05-23T04:51:20.015Z,18.37
2019-05-23T04:53:49.129Z,16.20
2019-05-23T04:56:18.161Z,16.05
2019-05-23T04:58:47.811Z,18.37
2019-05-23T05:01:18.579Z,17.67
2019-05-23T05:03:47.724Z,16.95
2019-05-23T05:06:16.455Z,14.90
2019-05-23T05:08:45.807Z,17.82
2019-05-23T05:11:16.103Z,20.70
2019-05-23T05:13:45.592Z,14.13
2019-05-23T05:16:14.471Z,20.35
2019-05-23T05:18:43.580Z,20.30
2019-05-23T05:21:12.367Z,19.42
2019-05-23T05:23:41.534Z,22.27
2019-05-23T05:26:13.342Z,24.57
2019-05-23T05:28:42.683Z,24.77
2019-05-23T05:31:11.759Z,27.52
2019-05-23T05:33:40.597Z,25.77
2019-05-23T05:36:09.418Z,23.77
2019-05-23T05:38:38.771Z,27.10
2019-05-23T05:41:07.904Z,26.87
2019-05-23T05:43:37.482Z,25.72
2019-05-23T05:46:11.029Z,24.98
2019-05-23T05:48:40.169Z,26.97
2019-05-23T05:51:09.516Z,24.30
2019-05-23T05:53:38.376Z,22.17
2019-05-23T05:56:07.356Z,23.57
2019-05-23T05:58:36.078Z,33.50
2019-05-23T06:01:06.963Z,35.68
2019-05-23T06:03:36.111Z,32.08
2019-05-23T06:06:22.960Z,30.60
2019-05-23T06:08:57.697Z,32.90
2019-05-23T06:11:26.718Z,38.35
2019-05-23T06:13:55.659Z,36.88
2019-05-23T06:16:24.701Z,41.63
2019-05-23T06:18:54.713Z,31.73
2019-05-23T06:21:25.250Z,32.30
2019-05-23T06:23:54.137Z,31.33
2019-05-23T06:26:23.259Z,32.55
2019-05-23T06:28:52.057Z,30.02
2019-05-23T06:31:22.013Z,28.30
2019-05-23T06:33:51.139Z,29.63
2019-05-23T06:36:19.813Z,27.80
2019-05-23T06:38:48.466Z,23.40
2019-05-23T06:41:18.679Z,23.83
2019-05-23T06:43:48.159Z,23.75
2019-05-23T06:46:17.500Z,24.57
2019-05-23T06:48:46.501Z,25.45
2019-05-23T06:51:15.598Z,29.90
2019-05-23T06:53:44.446Z,29.35
2019-05-23T06:56:14.201Z,27.00
2019-05-23T06:58:43.026Z,31.93
2019-05-23T07:01:11.774Z,32.45
2019-05-23T07:03:44.035Z,29.10
2019-05-23T07:06:16.080Z,30.92
2019-05-23T07:08:47.362Z,25.88
2019-05-23T07:11:19.405Z,31.82
2019-05-23T07:13:48.150Z,40.25
2019-05-23T07:16:16.879Z,34.70
2019-05-23T07:18:45.720Z,40.67
2019-05-23T07:21:15.289Z,33.25
2019-05-23T07:23:44.131Z,33.40
2019-05-23T07:26:13.392Z,31.52
2019-05-23T07:28:42.514Z,34.98
2019-05-23T07:31:12.266Z,40.03
2019-05-23T07:33:59.970Z,35.63
2019-05-23T07:36:11.904Z,32.23
2019-05-23T07:38:40.782Z,30.80
2019-05-23T07:41:10.127Z,31.37
2019-05-23T07:43:39.621Z,31.17
2019-05-23T07:46:08.695Z,37.13
2019-05-23T07:48:37.598Z,31.75
2019-05-23T07:51:06.463Z,30.27
2019-05-23T07:53:44.043Z,33.60
2019-05-23T07:56:14.961Z,28.32
2019-05-23T07:58:44.208Z,27.42
2019-05-23T08:01:15.042Z,27.37
2019-05-23T08:03:44.454Z,27.48
2019-05-23T08:06:13.832Z,28.07
2019-05-23T08:08:44.259Z,26.35
2019-05-23T08:11:13.054Z,24.02
2019-05-23T08:13:42.085Z,22.73
2019-05-23T08:16:11.024Z,26.07
2019-05-23T08:18:39.706Z,25.25
2019-05-23T08:21:08.517Z,23.12
2019-05-23T08:23:40.684Z,22.80
2019-05-23T08:26:09.504Z,20.57
2019-05-23T08:28:53.357Z,22.02
2019-05-23T08:31:09.131Z,19.37
2019-05-23T08:33:38.014Z,18.37
2019-05-23T08:36:06.851Z,20.27
2019-05-23T08:38:36.503Z,19.07
2019-05-23T08:41:06.972Z,21.52
2019-05-23T08:43:35.931Z,20.77
2019-05-23T08:46:06.958Z,17.48
2019-05-23T08:48:35.815Z,21.00
2019-05-23T08:51:05.340Z,17.05
2019-05-23T08:53:35.543Z,18.40
2019-05-23T08:56:17.961Z,17.17
2019-05-23T08:58:36.061Z,14.98
2019-05-23T09:01:05.641Z,13.65
2019-05-23T09:03:35.411Z,15.43
2019-05-23T09:06:05.121Z,22.85
2019-05-23T09:08:34.931Z,21.95
2019-05-23T09:11:03.710Z,11.35
2019-05-23T09:13:35.370Z,15.68
2019-05-23T09:16:05.182Z,17.95
2019-05-23T09:18:34.554Z,13.40
2019-05-23T09:21:03.635Z,15.83
2019-05-23T09:23:32.473Z,14.73
2019-05-23T09:26:01.738Z,15.10
2019-05-23T09:28:30.544Z,14.10
2019-05-23T09:30:59.648Z,12.37
2019-05-23T09:33:29.316Z,11.97
2019-05-23T09:35:58.290Z,15.10
2019-05-23T09:38:27.341Z,18.15
2019-05-23T09:40:56.317Z,17.87
2019-05-23T09:43:25.525Z,16.12
2019-05-23T09:45:54.612Z,11.35
2019-05-23T09:48:23.772Z,13.48
2019-05-23T09:50:52.579Z,16.75
2019-05-23T09:53:21.943Z,16.70
2019-05-23T09:56:03.189Z,13.62
2019-05-23T09:58:32.363Z,13.90
2019-05-23T10:04:03.103Z,14.98
2019-05-23T10:06:37.124Z,14.90
2019-05-23T10:09:15.856Z,12.33
2019-05-23T10:12:01.912Z,13.83
2019-05-23T10:14:42.931Z,14.55
2019-05-23T10:17:13.665Z,10.45
2019-05-23T10:23:36.695Z,10.63
2019-05-23T10:25:22.732Z,14.85
2019-05-23T10:28:08.506Z,9.58
2019-05-23T10:33:39.309Z,9.68
2019-05-23T10:36:08.443Z,9.23
2019-05-23T10:38:51.573Z,12.37
2019-05-23T10:41:34.556Z,8.83
2019-05-23T10:44:03.503Z,10.23
2019-05-23T10:46:44.692Z,9.53
2019-05-23T10:52:27.751Z,11.70
2019-05-23T10:54:57.094Z,9.38
2019-05-23T10:57:25.948Z,9.55
2019-05-23T10:59:55.022Z,11.83
2019-05-23T11:02:26.897Z,13.05
2019-05-23T11:04:54.753Z,13.03
2019-05-23T11:07:24.797Z,12.20
2019-05-23T11:09:54.235Z,10.45
2019-05-23T11:12:23.390Z,15.05
2019-05-23T11:14:52.320Z,16.50
2019-05-23T11:17:21.720Z,10.82
2019-05-23T11:19:50.678Z,10.40
2019-05-23T11:22:22.272Z,9.20
2019-05-23T11:24:51.190Z,13.98
2019-05-23T11:27:21.403Z,14.30
2019-05-23T11:29:53.236Z,15.43
2019-05-23T11:32:23.192Z,11.25
2019-05-23T11:34:52.142Z,12.40
2019-05-23T11:37:21.130Z,12.18
2019-05-23T11:39:51.059Z,13.80
2019-05-23T11:42:20.654Z,13.95
2019-05-23T11:44:49.425Z,10.68
2019-05-23T11:47:18.217Z,12.43
2019-05-23T11:49:47.372Z,11.35
2019-05-23T11:52:16.816Z,11.10
2019-05-23T11:54:45.960Z,10.72
2019-05-23T11:57:17.047Z,15.85
2019-05-23T11:59:46.362Z,10.25
2019-05-23T12:02:31.859Z,10.00
2019-05-23T12:05:02.575Z,15.48
2019-05-23T12:07:31.394Z,14.50
2019-05-23T12:10:00.253Z,12.73
2019-05-23T12:12:29.090Z,13.75
2019-05-23T12:14:57.900Z,14.80
2019-05-23T12:17:27.942Z,10.48
2019-05-23T12:19:56.701Z,9.20
2019-05-23T12:22:28.638Z,9.18
2019-05-23T12:24:57.579Z,11.00
2019-05-23T12:27:26.546Z,9.63
2019-05-23T12:29:55.953Z,10.75
2019-05-23T12:32:27.542Z,9.80
2019-05-23T12:35:09.223Z,10.43
2019-05-23T12:37:27.032Z,9.08
2019-05-23T12:39:56.305Z,10.72
2019-05-23T12:42:26.579Z,9.25
2019-05-23T12:44:55.492Z,11.03
2019-05-23T12:47:26.697Z,8.35
2019-05-23T12:49:57.201Z,9.30
2019-05-23T12:52:26.103Z,11.28
2019-05-23T12:54:55.502Z,9.80
2019-05-23T12:57:25.978Z,9.28
2019-05-23T12:59:55.670Z,7.53
2019-05-23T13:02:27.622Z,10.18
2019-05-23T13:04:57.277Z,13.10
2019-05-23T13:07:36.131Z,12.88
2019-05-23T13:09:58.487Z,9.45
2019-05-23T13:12:29.055Z,8.00
2019-05-23T13:14:58.971Z,7.92
2019-05-23T13:17:28.198Z,10.35
2019-05-23T13:19:58.550Z,9.10
2019-05-23T13:22:27.631Z,8.20
2019-05-23T13:24:56.695Z,8.58
2019-05-23T13:27:29.366Z,10.65
2019-05-23T13:29:58.388Z,12.95
2019-05-23T13:32:27.316Z,9.53
2019-05-23T13:34:56.038Z,11.97
2019-05-23T13:37:28.661Z,9.43
2019-05-23T13:39:58.062Z,11.12
2019-05-23T13:42:26.870Z,10.23
2019-05-23T13:44:55.826Z,8.35
2019-05-23T13:47:24.714Z,9.93
2019-05-23T13:49:53.694Z,10.65
2019-05-23T13:52:22.480Z,9.38
2019-05-23T13:54:51.329Z,10.13
2019-05-23T13:57:20.168Z,9.38
2019-05-23T13:59:49.267Z,9.20
2019-05-23T14:02:18.958Z,12.73
2019-05-23T14:04:47.985Z,9.90
2019-05-23T14:07:17.578Z,9.20
2019-05-23T14:09:49.141Z,7.12
2019-05-23T14:12:21.968Z,7.37
2019-05-23T14:14:48.402Z,8.10
2019-05-23T14:17:28.087Z,7.12
2019-05-23T14:19:57.302Z,9.73
2019-05-23T14:22:28.228Z,11.30
2019-05-23T14:24:57.141Z,11.75
2019-05-23T14:27:48.463Z,8.88
2019-05-23T14:30:38.191Z,10.43
2019-05-23T14:33:21.684Z,10.88
2019-05-23T14:35:52.081Z,11.28
2019-05-23T14:38:30.803Z,8.95
2019-05-23T14:40:52.287Z,6.92
2019-05-23T14:43:25.481Z,8.23
2019-05-23T14:45:55.926Z,10.32
2019-05-23T14:48:42.661Z,9.40
2019-05-23T14:51:13.299Z,7.80
2019-05-23T14:53:55.097Z,6.60
2019-05-23T14:56:25.472Z,8.18
2019-05-23T14:58:54.497Z,7.12
2019-05-23T15:01:28.011Z,9.10
2019-05-23T15:03:56.938Z,6.42
2019-05-23T15:06:25.946Z,7.87
2019-05-23T15:08:54.673Z,6.45
2019-05-23T15:11:23.537Z,5.62
2019-05-23T15:13:52.486Z,7.53
2019-05-23T15:16:21.476Z,5.83
2019-05-23T15:18:54.843Z,7.30
2019-05-23T15:21:23.807Z,7.80
2019-05-23T15:23:52.539Z,5.95
2019-05-23T15:26:23.401Z,7.15
2019-05-23T15:28:51.878Z,9.70
2019-05-23T15:31:20.662Z,8.68
2019-05-23T15:33:49.293Z,5.85
2019-05-23T15:36:18.166Z,6.05
2019-05-23T15:38:46.936Z,6.22
2019-05-23T15:41:15.802Z,5.45
2019-05-23T15:43:44.751Z,8.70
2019-05-23T15:46:16.349Z,7.37
2019-05-23T15:48:45.348Z,5.45
2019-05-23T15:51:15.852Z,7.55
2019-05-23T15:53:48.876Z,5.47
2019-05-23T15:56:35.688Z,7.25
2019-05-23T15:59:14.685Z,7.25
2019-05-23T16:01:47.744Z,6.78
2019-05-23T16:04:19.579Z,7.50
2019-05-23T16:06:49.366Z,4.97
2019-05-23T16:09:29.606Z,6.10
2019-05-23T16:11:49.940Z,7.17
2019-05-23T16:14:19.927Z,5.33
2019-05-23T16:16:50.361Z,5.83
2019-05-23T16:19:19.194Z,6.67
2019-05-23T16:21:50.223Z,5.83
2019-05-23T16:24:20.165Z,7.05
2019-05-23T16:26:49.109Z,6.35
2019-05-23T16:29:18.180Z,6.55
2019-05-23T16:31:46.888Z,5.12
2019-05-23T16:34:20.096Z,7.90
2019-05-23T16:36:48.804Z,5.95
2019-05-23T16:39:19.241Z,6.90
2019-05-23T16:41:48.019Z,7.03
2019-05-23T16:44:16.915Z,4.00
2019-05-23T16:46:48.391Z,5.78
2019-05-23T16:49:18.127Z,7.55
2019-05-23T16:51:46.873Z,4.75
2019-05-23T16:54:17.277Z,5.72
2019-05-23T16:56:50.388Z,5.50
2019-05-23T16:59:38.851Z,5.37
2019-05-23T17:02:09.326Z,7.28
2019-05-23T17:04:42.326Z,6.78
2019-05-23T17:07:35.367Z,7.70
2019-05-23T17:10:08.630Z,11.03
2019-05-23T17:12:33.562Z,7.20
2019-05-23T17:15:06.526Z,10.63
2019-05-23T17:18:00.734Z,10.93
2019-05-23T17:20:30.874Z,7.00
2019-05-23T17:23:17.562Z,10.00
2019-05-23T17:25:53.648Z,13.15
2019-05-23T17:28:29.663Z,10.78
2019-05-23T17:31:12.535Z,11.50
2019-05-23T17:33:41.619Z,10.70
2019-05-23T17:36:10.452Z,8.55
2019-05-23T17:38:39.124Z,12.40
2019-05-23T17:41:08.198Z,8.60
2019-05-23T17:43:37.065Z,10.80
2019-05-23T17:46:06.171Z,11.45
2019-05-23T17:48:34.893Z,14.60
2019-05-23T17:51:03.859Z,10.08
2019-05-23T17:53:32.686Z,13.25
2019-05-23T17:56:01.894Z,9.68
2019-05-23T17:58:30.935Z,9.53
2019-05-23T18:00:59.877Z,11.15
2019-05-23T18:03:29.363Z,10.60
2019-05-23T18:05:58.517Z,9.75
2019-05-23T18:08:42.794Z,11.10
2019-05-23T18:11:17.527Z,13.72
2019-05-23T18:13:52.526Z,13.85
2019-05-23T18:16:22.853Z,14.98
2019-05-23T18:18:52.361Z,12.15
2019-05-23T18:21:24.928Z,18.27
2019-05-23T18:29:43.035Z,15.93
2019-05-23T18:32:24.762Z,15.78
2019-05-23T18:34:56.240Z,14.83
2019-05-23T18:37:28.657Z,18.90
2019-05-23T18:39:58.494Z,16.90
2019-05-23T18:42:35.980Z,16.70
2019-05-23T18:45:07.612Z,15.40
2019-05-23T18:47:41.087Z,15.80
2019-05-23T18:50:11.706Z,11.12
2019-05-23T18:52:40.630Z,12.35
2019-05-23T18:55:09.935Z,16.30
2019-05-23T18:57:39.148Z,15.58
2019-05-23T19:00:09.019Z,15.58
2019-05-23T19:02:40.195Z,11.78
2019-05-23T19:05:10.172Z,15.70
2019-05-23T19:07:40.923Z,14.53
2019-05-23T19:10:11.699Z,12.85
2019-05-23T19:12:42.088Z,14.10
2019-05-23T19:15:11.551Z,15.45
2019-05-23T19:17:40.309Z,21.20
2019-05-23T19:20:09.268Z,18.87
2019-05-23T19:22:39.176Z,17.27
2019-05-23T19:25:10.425Z,15.70
2019-05-23T19:27:39.459Z,21.17
2019-05-23T19:30:10.396Z,14.30
2019-05-23T19:32:39.177Z,13.90
2019-05-23T19:35:08.089Z,13.38
2019-05-23T19:37:36.836Z,12.45
2019-05-23T19:40:08.366Z,15.20
2019-05-23T19:42:37.764Z,14.83
2019-05-23T19:45:07.589Z,11.33
2019-05-23T19:47:36.262Z,19.35
2019-05-23T19:50:05.880Z,12.47
2019-05-23T19:52:35.184Z,15.88
2019-05-23T19:55:07.435Z,14.75
2019-05-23T19:57:37.443Z,19.20
2019-05-23T20:00:08.370Z,14.70
2019-05-23T20:02:41.863Z,15.88
2019-05-23T20:05:12.324Z,11.48
2019-05-23T20:07:41.147Z,15.25
2019-05-23T20:10:11.106Z,15.00
2019-05-23T20:12:39.952Z,11.88
2019-05-23T20:15:10.378Z,14.95
2019-05-23T20:17:39.085Z,16.15
2019-05-23T20:20:08.175Z,18.45
2019-05-23T20:22:36.905Z,15.75
2019-05-23T20:25:07.711Z,10.35
2019-05-23T20:27:36.528Z,10.88
2019-05-23T20:30:10.390Z,9.28
2019-05-23T20:32:39.178Z,13.28
2019-05-23T20:35:08.179Z,13.62
2019-05-23T20:37:37.569Z,9.88
2019-05-23T20:40:07.025Z,11.65
2019-05-23T20:42:35.891Z,8.63
2019-05-23T20:45:05.694Z,9.55
2019-05-23T20:47:35.396Z,10.55
2019-05-23T20:50:05.102Z,10.32
2019-05-23T20:52:33.814Z,9.83
2019-05-23T20:55:02.568Z,9.18
2019-05-23T20:57:31.303Z,13.00
2019-05-23T21:00:00.118Z,8.70
2019-05-23T21:02:30.311Z,8.13
2019-05-23T21:04:58.945Z,15.10
2019-05-23T21:07:27.608Z,7.58
2019-05-23T21:09:56.286Z,9.23
2019-05-23T21:12:30.105Z,10.18
2019-05-23T21:14:55.339Z,9.73
2019-05-23T21:17:24.955Z,12.43
2019-05-23T21:19:53.622Z,14.18
2019-05-23T21:22:22.407Z,15.80
2019-05-23T21:24:51.123Z,9.85
2019-05-23T21:27:19.952Z,9.80
2019-05-23T21:29:48.678Z,13.88
2019-05-23T21:32:17.794Z,14.28
2019-05-23T21:34:46.462Z,9.83
2019-05-23T21:37:15.358Z,7.33
2019-05-23T21:39:44.011Z,9.68
2019-05-23T21:42:12.738Z,8.48
2019-05-23T21:44:41.457Z,8.45
2019-05-23T21:47:10.294Z,10.20
2019-05-23T21:49:39.045Z,10.60
2019-05-23T21:52:07.805Z,9.13
2019-05-23T21:54:36.528Z,11.88
2019-05-23T21:57:05.261Z,10.25
2019-05-23T22:09:48.501Z,10.28
2019-05-23T22:12:17.795Z,11.60
2019-05-23T22:14:46.903Z,12.63
2019-05-23T22:17:26.575Z,13.83
2019-05-23T22:19:55.289Z,12.40
2019-05-23T22:22:24.300Z,10.70
2019-05-23T22:24:53.089Z,10.82
2019-05-23T22:27:22.905Z,8.40
2019-05-23T22:29:51.649Z,8.60
2019-05-23T22:32:22.149Z,9.08
2019-05-23T22:34:55.353Z,10.88
2019-05-23T22:37:24.113Z,8.25
2019-05-23T22:39:52.832Z,11.70
2019-05-23T22:42:21.934Z,9.03
2019-05-23T22:44:50.590Z,13.20
2019-05-23T22:47:19.352Z,13.28
2019-05-23T22:49:48.166Z,10.05
2019-05-23T22:52:16.901Z,18.02
2019-05-23T22:54:45.564Z,12.55
2019-05-23T22:57:14.315Z,13.60
2019-05-23T22:59:43.026Z,18.60
2019-05-23T23:02:13.445Z,17.77
2019-05-23T23:04:42.483Z,15.65
2019-05-23T23:07:11.492Z,18.45
2019-05-23T23:09:40.238Z,22.10
2019-05-23T23:12:08.987Z,21.00
2019-05-23T23:14:37.661Z,17.70
2019-05-23T23:17:06.381Z,18.00
2019-05-23T23:19:35.185Z,19.07
2019-05-23T23:22:04.512Z,18.52
2019-05-23T23:24:33.257Z,19.20
2019-05-23T23:27:01.944Z,21.48
2019-05-23T23:29:30.622Z,20.70
2019-05-23T23:32:03.030Z,21.82
2019-05-23T23:34:29.683Z,20.30
2019-05-23T23:36:58.434Z,20.72
2019-05-23T23:39:27.167Z,18.52
2019-05-23T23:41:55.900Z,19.00
2019-05-23T23:44:26.191Z,26.95
2019-05-23T23:47:12.688Z,21.75
2019-05-23T23:49:59.075Z,18.12
2019-05-23T23:52:45.668Z,19.12
2019-05-23T23:55:32.593Z,18.95
2019-05-23T23:58:00.575Z,18.62
